sensor_id;sensor_type;location;lat;lon;timestamp;P1;durP1;ratioP1;P2;durP2;ratioP2
48596;SDS011;34382;43.160;24.148;2023-02-11T00:00:57;24.00;;;11.52;;
48596;SDS011;34382;43.160;24.148;2023-02-11T00:02:32;24.20;;;12.23;;
48596;SDS011;34382;43.160;24.148;2023-02-11T00:04:05;23.25;;;12.07;;
48596;SDS011;34382;43.160;24.148;2023-02-11T00:05:37;26.63;;;11.02;;
48596;SDS011;34382;43.160;24.148;2023-02-11T00:07:10;24.17;;;11.23;;
48596;SDS011;34382;43.160;24.148;2023-02-11T00:08:42;28.23;;;12.57;;
48596;SDS011;34382;43.160;24.148;2023-02-11T00:10:14;35.42;;;18.10;;
48596;SDS011;34382;43.160;24.148;2023-02-11T00:11:46;49.63;;;25.45;;
48596;SDS011;34382;43.160;24.148;2023-02-11T00:13:19;40.67;;;22.45;;
48596;SDS011;34382;43.160;24.148;2023-02-11T00:14:51;36.95;;;18.33;;
48596;SDS011;34382;43.160;24.148;2023-02-11T00:16:23;26.70;;;13.48;;
48596;SDS011;34382;43.160;24.148;2023-02-11T00:17:55;22.35;;;12.82;;
48596;SDS011;34382;43.160;24.148;2023-02-11T00:19:27;20.65;;;11.52;;
48596;SDS011;34382;43.160;24.148;2023-02-11T00:20:59;24.30;;;11.98;;
48596;SDS011;34382;43.160;24.148;2023-02-11T00:22:35;27.50;;;13.00;;
48596;SDS011;34382;43.160;24.148;2023-02-11T00:24:07;21.52;;;10.35;;
48596;SDS011;34382;43.160;24.148;2023-02-11T00:25:40;24.63;;;11.48;;
48596;SDS011;34382;43.160;24.148;2023-02-11T00:27:13;22.85;;;11.77;;
48596;SDS011;34382;43.160;24.148;2023-02-11T00:28:45;21.30;;;10.88;;
48596;SDS011;34382;43.160;24.148;2023-02-11T00:30:18;25.48;;;12.23;;
48596;SDS011;34382;43.160;24.148;2023-02-11T00:31:50;22.92;;;10.43;;
48596;SDS011;34382;43.160;24.148;2023-02-11T00:33:23;27.60;;;13.75;;
48596;SDS011;34382;43.160;24.148;2023-02-11T00:34:55;24.73;;;12.57;;
48596;SDS011;34382;43.160;24.148;2023-02-11T00:36:27;18.90;;;9.50;;
48596;SDS011;34382;43.160;24.148;2023-02-11T00:38:00;21.98;;;11.57;;
48596;SDS011;34382;43.160;24.148;2023-02-11T00:39:32;23.90;;;10.30;;
48596;SDS011;34382;43.160;24.148;2023-02-11T00:41:04;27.17;;;12.82;;
48596;SDS011;34382;43.160;24.148;2023-02-11T00:42:36;24.58;;;11.82;;
48596;SDS011;34382;43.160;24.148;2023-02-11T00:44:08;24.45;;;12.23;;
48596;SDS011;34382;43.160;24.148;2023-02-11T00:45:41;36.05;;;19.50;;
48596;SDS011;34382;43.160;24.148;2023-02-11T00:47:13;39.13;;;22.65;;
48596;SDS011;34382;43.160;24.148;2023-02-11T00:48:45;40.03;;;22.42;;
48596;SDS011;34382;43.160;24.148;2023-02-11T00:50:17;37.25;;;20.45;;
48596;SDS011;34382;43.160;24.148;2023-02-11T00:51:49;45.90;;;25.25;;
48596;SDS011;34382;43.160;24.148;2023-02-11T00:53:21;44.03;;;22.63;;
48596;SDS011;34382;43.160;24.148;2023-02-11T00:54:53;35.38;;;17.70;;
48596;SDS011;34382;43.160;24.148;2023-02-11T00:56:25;23.60;;;11.68;;
48596;SDS011;34382;43.160;24.148;2023-02-11T00:57:57;25.90;;;11.95;;
48596;SDS011;34382;43.160;24.148;2023-02-11T00:59:30;26.52;;;11.98;;
48596;SDS011;34382;43.160;24.148;2023-02-11T01:01:02;24.73;;;11.60;;
48596;SDS011;34382;43.160;24.148;2023-02-11T01:02:35;34.53;;;18.33;;
48596;SDS011;34382;43.160;24.148;2023-02-11T01:04:07;21.88;;;11.63;;
48596;SDS011;34382;43.160;24.148;2023-02-11T01:05:39;29.17;;;14.25;;
48596;SDS011;34382;43.160;24.148;2023-02-11T01:07:11;36.08;;;18.45;;
48596;SDS011;34382;43.160;24.148;2023-02-11T01:08:43;54.85;;;29.98;;
48596;SDS011;34382;43.160;24.148;2023-02-11T01:10:15;48.08;;;29.58;;
48596;SDS011;34382;43.160;24.148;2023-02-11T01:11:47;48.33;;;27.38;;
48596;SDS011;34382;43.160;24.148;2023-02-11T01:13:19;55.03;;;27.98;;
48596;SDS011;34382;43.160;24.148;2023-02-11T01:14:51;54.90;;;29.90;;
48596;SDS011;34382;43.160;24.148;2023-02-11T01:16:23;50.35;;;27.42;;
48596;SDS011;34382;43.160;24.148;2023-02-11T01:17:55;51.53;;;27.30;;
48596;SDS011;34382;43.160;24.148;2023-02-11T01:19:28;45.40;;;27.70;;
48596;SDS011;34382;43.160;24.148;2023-02-11T01:21:00;31.77;;;18.52;;
48596;SDS011;34382;43.160;24.148;2023-02-11T01:22:32;30.85;;;15.63;;
48596;SDS011;34382;43.160;24.148;2023-02-11T01:24:05;24.48;;;11.93;;
48596;SDS011;34382;43.160;24.148;2023-02-11T01:25:37;21.67;;;10.25;;
48596;SDS011;34382;43.160;24.148;2023-02-11T01:27:09;20.95;;;10.63;;
48596;SDS011;34382;43.160;24.148;2023-02-11T01:28:41;19.77;;;9.77;;
48596;SDS011;34382;43.160;24.148;2023-02-11T01:30:13;21.05;;;9.93;;
48596;SDS011;34382;43.160;24.148;2023-02-11T01:31:45;20.98;;;9.63;;
48596;SDS011;34382;43.160;24.148;2023-02-11T01:33:18;16.45;;;8.18;;
48596;SDS011;34382;43.160;24.148;2023-02-11T01:34:50;20.30;;;8.83;;
48596;SDS011;34382;43.160;24.148;2023-02-11T01:36:22;16.05;;;8.40;;
48596;SDS011;34382;43.160;24.148;2023-02-11T01:37:54;15.65;;;7.78;;
48596;SDS011;34382;43.160;24.148;2023-02-11T01:39:26;18.30;;;8.18;;
48596;SDS011;34382;43.160;24.148;2023-02-11T01:40:59;19.05;;;8.90;;
48596;SDS011;34382;43.160;24.148;2023-02-11T01:42:33;20.45;;;9.52;;
48596;SDS011;34382;43.160;24.148;2023-02-11T01:47:44;27.77;;;11.98;;
48596;SDS011;34382;43.160;24.148;2023-02-11T01:51:04;23.55;;;10.52;;
48596;SDS011;34382;43.160;24.148;2023-02-11T01:52:38;18.80;;;9.27;;
48596;SDS011;34382;43.160;24.148;2023-02-11T01:56:03;19.20;;;7.80;;
48596;SDS011;34382;43.160;24.148;2023-02-11T01:57:56;21.58;;;8.90;;
48596;SDS011;34382;43.160;24.148;2023-02-11T01:59:32;19.13;;;8.55;;
48596;SDS011;34382;43.160;24.148;2023-02-11T02:01:10;19.75;;;9.93;;
48596;SDS011;34382;43.160;24.148;2023-02-11T02:03:01;18.02;;;8.43;;
48596;SDS011;34382;43.160;24.148;2023-02-11T02:04:38;20.58;;;10.27;;
48596;SDS011;34382;43.160;24.148;2023-02-11T02:06:21;22.02;;;10.38;;
48596;SDS011;34382;43.160;24.148;2023-02-11T02:08:26;19.15;;;9.73;;
48596;SDS011;34382;43.160;24.148;2023-02-11T02:10:04;19.45;;;8.60;;
48596;SDS011;34382;43.160;24.148;2023-02-11T02:11:38;19.02;;;7.50;;
48596;SDS011;34382;43.160;24.148;2023-02-11T02:13:10;16.25;;;8.13;;
48596;SDS011;34382;43.160;24.148;2023-02-11T02:14:43;20.67;;;8.50;;
48596;SDS011;34382;43.160;24.148;2023-02-11T02:16:17;18.50;;;9.30;;
48596;SDS011;34382;43.160;24.148;2023-02-11T02:17:58;25.83;;;12.18;;
48596;SDS011;34382;43.160;24.148;2023-02-11T02:19:38;23.67;;;13.18;;
48596;SDS011;34382;43.160;24.148;2023-02-11T02:34:19;40.67;;;20.40;;
48596;SDS011;34382;43.160;24.148;2023-02-11T02:35:43;38.35;;;19.10;;
48596;SDS011;34382;43.160;24.148;2023-02-11T02:39:23;33.33;;;19.48;;
48596;SDS011;34382;43.160;24.148;2023-02-11T02:42:59;39.17;;;20.65;;
48596;SDS011;34382;43.160;24.148;2023-02-11T02:46:21;33.78;;;14.77;;
48596;SDS011;34382;43.160;24.148;2023-02-11T02:47:54;32.65;;;14.23;;
48596;SDS011;34382;43.160;24.148;2023-02-11T02:49:26;24.95;;;13.30;;
48596;SDS011;34382;43.160;24.148;2023-02-11T02:51:07;25.17;;;12.02;;
48596;SDS011;34382;43.160;24.148;2023-02-11T02:56:47;21.55;;;10.52;;
48596;SDS011;34382;43.160;24.148;2023-02-11T03:00:28;20.00;;;10.43;;
48596;SDS011;34382;43.160;24.148;2023-02-11T03:02:17;17.13;;;8.75;;
48596;SDS011;34382;43.160;24.148;2023-02-11T03:07:46;17.45;;;7.75;;
48596;SDS011;34382;43.160;24.148;2023-02-11T03:09:26;16.30;;;8.48;;
48596;SDS011;34382;43.160;24.148;2023-02-11T03:11:02;19.25;;;8.98;;
48596;SDS011;34382;43.160;24.148;2023-02-11T03:12:38;17.73;;;8.13;;
48596;SDS011;34382;43.160;24.148;2023-02-11T03:14:13;14.57;;;7.20;;
48596;SDS011;34382;43.160;24.148;2023-02-11T03:15:48;13.70;;;8.05;;
48596;SDS011;34382;43.160;24.148;2023-02-11T03:17:23;16.48;;;6.68;;
48596;SDS011;34382;43.160;24.148;2023-02-11T03:20:49;15.05;;;6.43;;
48596;SDS011;34382;43.160;24.148;2023-02-11T03:22:29;15.43;;;5.97;;
48596;SDS011;34382;43.160;24.148;2023-02-11T03:24:07;16.13;;;6.70;;
48596;SDS011;34382;43.160;24.148;2023-02-11T03:25:51;14.60;;;6.82;;
48596;SDS011;34382;43.160;24.148;2023-02-11T03:29:33;15.82;;;6.78;;
48596;SDS011;34382;43.160;24.148;2023-02-11T03:31:11;15.50;;;7.07;;
48596;SDS011;34382;43.160;24.148;2023-02-11T03:32:52;13.68;;;6.25;;
48596;SDS011;34382;43.160;24.148;2023-02-11T03:34:41;13.50;;;6.13;;
48596;SDS011;34382;43.160;24.148;2023-02-11T03:36:19;13.45;;;6.20;;
48596;SDS011;34382;43.160;24.148;2023-02-11T03:38:14;14.27;;;6.70;;
48596;SDS011;34382;43.160;24.148;2023-02-11T03:39:54;17.20;;;7.07;;
48596;SDS011;34382;43.160;24.148;2023-02-11T03:41:44;12.70;;;5.90;;
48596;SDS011;34382;43.160;24.148;2023-02-11T03:43:19;14.52;;;6.15;;
48596;SDS011;34382;43.160;24.148;2023-02-11T03:44:56;13.80;;;6.53;;
48596;SDS011;34382;43.160;24.148;2023-02-11T03:46:32;16.02;;;7.22;;
48596;SDS011;34382;43.160;24.148;2023-02-11T03:48:10;15.75;;;6.40;;
48596;SDS011;34382;43.160;24.148;2023-02-11T03:49:46;13.90;;;6.20;;
48596;SDS011;34382;43.160;24.148;2023-02-11T03:51:20;14.60;;;6.13;;
48596;SDS011;34382;43.160;24.148;2023-02-11T03:52:54;12.68;;;6.25;;
48596;SDS011;34382;43.160;24.148;2023-02-11T03:54:27;17.27;;;7.28;;
48596;SDS011;34382;43.160;24.148;2023-02-11T03:56:02;15.38;;;6.30;;
48596;SDS011;34382;43.160;24.148;2023-02-11T03:57:36;13.45;;;6.35;;
48596;SDS011;34382;43.160;24.148;2023-02-11T03:59:08;16.67;;;7.32;;
48596;SDS011;34382;43.160;24.148;2023-02-11T04:00:41;15.48;;;6.47;;
48596;SDS011;34382;43.160;24.148;2023-02-11T04:02:13;14.38;;;7.15;;
48596;SDS011;34382;43.160;24.148;2023-02-11T04:03:45;15.38;;;6.90;;
48596;SDS011;34382;43.160;24.148;2023-02-11T04:05:17;16.42;;;7.65;;
48596;SDS011;34382;43.160;24.148;2023-02-11T04:06:49;23.13;;;10.35;;
48596;SDS011;34382;43.160;24.148;2023-02-11T04:08:21;19.38;;;9.40;;
48596;SDS011;34382;43.160;24.148;2023-02-11T04:09:53;33.85;;;15.30;;
48596;SDS011;34382;43.160;24.148;2023-02-11T04:11:25;32.47;;;15.95;;
48596;SDS011;34382;43.160;24.148;2023-02-11T04:12:57;29.13;;;14.70;;
48596;SDS011;34382;43.160;24.148;2023-02-11T04:14:29;28.85;;;15.90;;
48596;SDS011;34382;43.160;24.148;2023-02-11T04:16:01;30.73;;;15.70;;
48596;SDS011;34382;43.160;24.148;2023-02-11T04:17:34;36.10;;;16.02;;
48596;SDS011;34382;43.160;24.148;2023-02-11T04:19:06;36.13;;;18.75;;
48596;SDS011;34382;43.160;24.148;2023-02-11T04:20:38;39.80;;;20.48;;
48596;SDS011;34382;43.160;24.148;2023-02-11T04:22:10;33.38;;;17.67;;
48596;SDS011;34382;43.160;24.148;2023-02-11T04:23:42;36.67;;;17.23;;
48596;SDS011;34382;43.160;24.148;2023-02-11T04:25:14;33.55;;;17.80;;
48596;SDS011;34382;43.160;24.148;2023-02-11T04:26:46;31.48;;;16.10;;
48596;SDS011;34382;43.160;24.148;2023-02-11T04:28:18;26.30;;;13.52;;
48596;SDS011;34382;43.160;24.148;2023-02-11T04:29:50;23.67;;;11.13;;
48596;SDS011;34382;43.160;24.148;2023-02-11T04:31:22;21.40;;;10.63;;
48596;SDS011;34382;43.160;24.148;2023-02-11T04:32:56;23.42;;;11.07;;
48596;SDS011;34382;43.160;24.148;2023-02-11T04:34:29;42.28;;;18.55;;
48596;SDS011;34382;43.160;24.148;2023-02-11T04:36:01;23.55;;;13.93;;
48596;SDS011;34382;43.160;24.148;2023-02-11T04:37:33;23.25;;;11.10;;
48596;SDS011;34382;43.160;24.148;2023-02-11T04:39:06;16.70;;;8.30;;
48596;SDS011;34382;43.160;24.148;2023-02-11T04:40:38;13.60;;;7.03;;
48596;SDS011;34382;43.160;24.148;2023-02-11T04:42:11;16.27;;;6.93;;
48596;SDS011;34382;43.160;24.148;2023-02-11T04:43:43;16.45;;;7.68;;
48596;SDS011;34382;43.160;24.148;2023-02-11T04:45:15;13.75;;;6.20;;
48596;SDS011;34382;43.160;24.148;2023-02-11T04:46:47;15.05;;;7.00;;
48596;SDS011;34382;43.160;24.148;2023-02-11T04:48:19;11.35;;;5.03;;
48596;SDS011;34382;43.160;24.148;2023-02-11T04:49:51;12.13;;;5.25;;
48596;SDS011;34382;43.160;24.148;2023-02-11T04:51:23;10.13;;;4.30;;
48596;SDS011;34382;43.160;24.148;2023-02-11T04:52:55;13.57;;;5.80;;
48596;SDS011;34382;43.160;24.148;2023-02-11T04:54:27;13.05;;;5.70;;
48596;SDS011;34382;43.160;24.148;2023-02-11T04:55:59;13.52;;;6.50;;
48596;SDS011;34382;43.160;24.148;2023-02-11T04:57:32;13.98;;;6.07;;
48596;SDS011;34382;43.160;24.148;2023-02-11T04:59:04;19.38;;;7.32;;
48596;SDS011;34382;43.160;24.148;2023-02-11T05:00:36;17.48;;;11.63;;
48596;SDS011;34382;43.160;24.148;2023-02-11T05:02:08;18.10;;;10.30;;
48596;SDS011;34382;43.160;24.148;2023-02-11T05:03:41;26.27;;;15.15;;
48596;SDS011;34382;43.160;24.148;2023-02-11T05:05:13;23.92;;;15.27;;
48596;SDS011;34382;43.160;24.148;2023-02-11T05:06:45;15.05;;;8.50;;
48596;SDS011;34382;43.160;24.148;2023-02-11T05:08:17;13.77;;;6.63;;
48596;SDS011;34382;43.160;24.148;2023-02-11T05:09:49;14.60;;;6.70;;
48596;SDS011;34382;43.160;24.148;2023-02-11T05:11:22;17.50;;;7.78;;
48596;SDS011;34382;43.160;24.148;2023-02-11T05:12:55;18.45;;;8.25;;
48596;SDS011;34382;43.160;24.148;2023-02-11T05:14:28;17.48;;;8.00;;
48596;SDS011;34382;43.160;24.148;2023-02-11T05:16:00;20.00;;;9.50;;
48596;SDS011;34382;43.160;24.148;2023-02-11T05:17:32;20.63;;;10.90;;
48596;SDS011;34382;43.160;24.148;2023-02-11T05:19:04;19.00;;;7.82;;
48596;SDS011;34382;43.160;24.148;2023-02-11T05:20:37;19.40;;;10.60;;
48596;SDS011;34382;43.160;24.148;2023-02-11T05:22:09;16.50;;;7.85;;
48596;SDS011;34382;43.160;24.148;2023-02-11T05:23:41;17.52;;;7.25;;
48596;SDS011;34382;43.160;24.148;2023-02-11T05:25:13;17.48;;;7.63;;
48596;SDS011;34382;43.160;24.148;2023-02-11T05:26:45;16.35;;;8.10;;
48596;SDS011;34382;43.160;24.148;2023-02-11T05:28:17;17.00;;;7.97;;
48596;SDS011;34382;43.160;24.148;2023-02-11T05:29:49;18.38;;;9.15;;
48596;SDS011;34382;43.160;24.148;2023-02-11T05:31:21;15.32;;;7.72;;
48596;SDS011;34382;43.160;24.148;2023-02-11T05:32:53;14.63;;;7.88;;
48596;SDS011;34382;43.160;24.148;2023-02-11T05:34:25;17.17;;;9.07;;
48596;SDS011;34382;43.160;24.148;2023-02-11T05:35:58;20.75;;;10.52;;
48596;SDS011;34382;43.160;24.148;2023-02-11T05:37:31;19.90;;;10.60;;
48596;SDS011;34382;43.160;24.148;2023-02-11T05:39:03;20.02;;;11.05;;
48596;SDS011;34382;43.160;24.148;2023-02-11T05:40:35;24.08;;;12.48;;
48596;SDS011;34382;43.160;24.148;2023-02-11T05:42:07;28.42;;;14.55;;
48596;SDS011;34382;43.160;24.148;2023-02-11T05:43:39;29.40;;;13.20;;
48596;SDS011;34382;43.160;24.148;2023-02-11T05:45:11;26.38;;;13.82;;
48596;SDS011;34382;43.160;24.148;2023-02-11T05:46:43;25.58;;;12.50;;
48596;SDS011;34382;43.160;24.148;2023-02-11T05:48:15;17.40;;;10.15;;
48596;SDS011;34382;43.160;24.148;2023-02-11T05:49:48;22.98;;;10.93;;
48596;SDS011;34382;43.160;24.148;2023-02-11T05:51:20;26.73;;;13.55;;
48596;SDS011;34382;43.160;24.148;2023-02-11T05:52:52;43.85;;;22.92;;
48596;SDS011;34382;43.160;24.148;2023-02-11T05:54:24;30.98;;;16.67;;
48596;SDS011;34382;43.160;24.148;2023-02-11T05:55:56;37.53;;;17.77;;
48596;SDS011;34382;43.160;24.148;2023-02-11T05:57:28;40.67;;;19.65;;
48596;SDS011;34382;43.160;24.148;2023-02-11T05:59:00;22.77;;;10.60;;
48596;SDS011;34382;43.160;24.148;2023-02-11T06:00:33;19.98;;;9.27;;
48596;SDS011;34382;43.160;24.148;2023-02-11T06:02:05;15.93;;;7.97;;
48596;SDS011;34382;43.160;24.148;2023-02-11T06:03:41;24.95;;;11.10;;
48596;SDS011;34382;43.160;24.148;2023-02-11T06:05:13;15.10;;;7.82;;
48596;SDS011;34382;43.160;24.148;2023-02-11T06:06:45;16.70;;;7.40;;
48596;SDS011;34382;43.160;24.148;2023-02-11T06:08:17;16.63;;;8.25;;
48596;SDS011;34382;43.160;24.148;2023-02-11T06:09:49;13.75;;;6.43;;
48596;SDS011;34382;43.160;24.148;2023-02-11T06:11:21;14.90;;;7.22;;
48596;SDS011;34382;43.160;24.148;2023-02-11T06:12:54;15.40;;;7.20;;
48596;SDS011;34382;43.160;24.148;2023-02-11T06:14:26;12.18;;;6.25;;
48596;SDS011;34382;43.160;24.148;2023-02-11T06:15:58;10.63;;;5.90;;
48596;SDS011;34382;43.160;24.148;2023-02-11T06:19:04;12.52;;;6.35;;
48596;SDS011;34382;43.160;24.148;2023-02-11T06:20:36;19.17;;;6.18;;
48596;SDS011;34382;43.160;24.148;2023-02-11T06:22:11;14.30;;;6.22;;
48596;SDS011;34382;43.160;24.148;2023-02-11T06:23:43;11.23;;;5.47;;
48596;SDS011;34382;43.160;24.148;2023-02-11T06:25:15;14.65;;;6.05;;
48596;SDS011;34382;43.160;24.148;2023-02-11T06:26:47;12.23;;;5.60;;
48596;SDS011;34382;43.160;24.148;2023-02-11T06:28:19;14.68;;;7.15;;
48596;SDS011;34382;43.160;24.148;2023-02-11T06:29:52;14.20;;;7.43;;
48596;SDS011;34382;43.160;24.148;2023-02-11T06:31:24;14.95;;;7.55;;
48596;SDS011;34382;43.160;24.148;2023-02-11T06:32:56;15.15;;;7.40;;
48596;SDS011;34382;43.160;24.148;2023-02-11T06:34:28;20.30;;;7.10;;
48596;SDS011;34382;43.160;24.148;2023-02-11T06:36:00;15.00;;;7.00;;
48596;SDS011;34382;43.160;24.148;2023-02-11T06:37:33;14.27;;;6.53;;
48596;SDS011;34382;43.160;24.148;2023-02-11T06:39:06;13.02;;;5.72;;
48596;SDS011;34382;43.160;24.148;2023-02-11T06:40:38;16.08;;;6.60;;
48596;SDS011;34382;43.160;24.148;2023-02-11T06:42:10;16.13;;;6.50;;
48596;SDS011;34382;43.160;24.148;2023-02-11T06:45:22;14.80;;;5.78;;
48596;SDS011;34382;43.160;24.148;2023-02-11T06:46:54;11.73;;;5.55;;
48596;SDS011;34382;43.160;24.148;2023-02-11T06:48:26;13.60;;;6.93;;
48596;SDS011;34382;43.160;24.148;2023-02-11T06:49:58;14.48;;;6.10;;
48596;SDS011;34382;43.160;24.148;2023-02-11T06:51:30;11.88;;;5.45;;
48596;SDS011;34382;43.160;24.148;2023-02-11T06:53:02;13.40;;;5.40;;
48596;SDS011;34382;43.160;24.148;2023-02-11T06:54:34;10.70;;;5.45;;
48596;SDS011;34382;43.160;24.148;2023-02-11T06:56:08;11.82;;;6.40;;
48596;SDS011;34382;43.160;24.148;2023-02-11T06:57:41;11.93;;;6.15;;
48596;SDS011;34382;43.160;24.148;2023-02-11T06:59:17;13.48;;;5.82;;
48596;SDS011;34382;43.160;24.148;2023-02-11T07:00:51;13.30;;;5.82;;
48596;SDS011;34382;43.160;24.148;2023-02-11T07:02:23;12.98;;;5.95;;
48596;SDS011;34382;43.160;24.148;2023-02-11T07:03:55;13.75;;;5.90;;
48596;SDS011;34382;43.160;24.148;2023-02-11T07:05:27;14.27;;;6.13;;
48596;SDS011;34382;43.160;24.148;2023-02-11T07:06:59;12.57;;;5.75;;
48596;SDS011;34382;43.160;24.148;2023-02-11T07:08:32;14.45;;;5.97;;
48596;SDS011;34382;43.160;24.148;2023-02-11T07:10:04;16.27;;;7.72;;
48596;SDS011;34382;43.160;24.148;2023-02-11T07:11:37;17.85;;;8.85;;
48596;SDS011;34382;43.160;24.148;2023-02-11T07:13:09;20.88;;;9.50;;
48596;SDS011;34382;43.160;24.148;2023-02-11T07:14:41;18.15;;;10.13;;
48596;SDS011;34382;43.160;24.148;2023-02-11T07:16:14;25.40;;;13.65;;
48596;SDS011;34382;43.160;24.148;2023-02-11T07:17:48;30.30;;;15.93;;
48596;SDS011;34382;43.160;24.148;2023-02-11T07:19:20;22.35;;;13.15;;
48596;SDS011;34382;43.160;24.148;2023-02-11T07:20:52;26.05;;;13.13;;
48596;SDS011;34382;43.160;24.148;2023-02-11T07:22:24;34.95;;;17.80;;
48596;SDS011;34382;43.160;24.148;2023-02-11T07:23:56;39.95;;;18.65;;
48596;SDS011;34382;43.160;24.148;2023-02-11T07:25:28;41.38;;;22.17;;
48596;SDS011;34382;43.160;24.148;2023-02-11T07:27:00;46.90;;;25.13;;
48596;SDS011;34382;43.160;24.148;2023-02-11T07:28:33;43.70;;;24.77;;
48596;SDS011;34382;43.160;24.148;2023-02-11T07:31:38;28.00;;;14.40;;
48596;SDS011;34382;43.160;24.148;2023-02-11T07:33:10;20.80;;;12.25;;
48596;SDS011;34382;43.160;24.148;2023-02-11T07:34:42;20.35;;;11.60;;
48596;SDS011;34382;43.160;24.148;2023-02-11T07:36:15;22.15;;;10.63;;
48596;SDS011;34382;43.160;24.148;2023-02-11T07:37:47;17.55;;;9.73;;
48596;SDS011;34382;43.160;24.148;2023-02-11T07:39:19;17.85;;;9.32;;
48596;SDS011;34382;43.160;24.148;2023-02-11T07:40:53;19.63;;;9.43;;
48596;SDS011;34382;43.160;24.148;2023-02-11T07:42:25;18.73;;;9.05;;
48596;SDS011;34382;43.160;24.148;2023-02-11T07:43:57;17.13;;;8.90;;
48596;SDS011;34382;43.160;24.148;2023-02-11T07:45:29;19.98;;;9.38;;
48596;SDS011;34382;43.160;24.148;2023-02-11T07:48:33;16.63;;;9.00;;
48596;SDS011;34382;43.160;24.148;2023-02-11T07:50:05;17.55;;;9.00;;
48596;SDS011;34382;43.160;24.148;2023-02-11T07:51:37;19.08;;;9.23;;
48596;SDS011;34382;43.160;24.148;2023-02-11T07:53:09;15.98;;;8.15;;
48596;SDS011;34382;43.160;24.148;2023-02-11T07:54:41;17.73;;;9.05;;
48596;SDS011;34382;43.160;24.148;2023-02-11T07:56:15;16.05;;;8.32;;
48596;SDS011;34382;43.160;24.148;2023-02-11T07:57:48;17.92;;;9.63;;
48596;SDS011;34382;43.160;24.148;2023-02-11T07:59:21;16.85;;;7.60;;
48596;SDS011;34382;43.160;24.148;2023-02-11T08:00:59;13.55;;;6.85;;
48596;SDS011;34382;43.160;24.148;2023-02-11T08:02:32;17.67;;;8.07;;
48596;SDS011;34382;43.160;24.148;2023-02-11T08:04:05;14.95;;;6.70;;
48596;SDS011;34382;43.160;24.148;2023-02-11T08:05:37;15.25;;;8.40;;
48596;SDS011;34382;43.160;24.148;2023-02-11T08:07:09;14.70;;;7.40;;
48596;SDS011;34382;43.160;24.148;2023-02-11T08:08:43;16.48;;;8.52;;
48596;SDS011;34382;43.160;24.148;2023-02-11T08:10:15;17.20;;;8.27;;
48596;SDS011;34382;43.160;24.148;2023-02-11T08:11:47;15.85;;;7.85;;
48596;SDS011;34382;43.160;24.148;2023-02-11T08:13:19;16.23;;;6.63;;
48596;SDS011;34382;43.160;24.148;2023-02-11T08:14:51;13.50;;;6.57;;
48596;SDS011;34382;43.160;24.148;2023-02-11T08:16:25;13.00;;;6.45;;
48596;SDS011;34382;43.160;24.148;2023-02-11T08:17:59;12.35;;;7.10;;
48596;SDS011;34382;43.160;24.148;2023-02-11T08:19:34;14.38;;;6.72;;
48596;SDS011;34382;43.160;24.148;2023-02-11T08:21:06;15.80;;;6.85;;
48596;SDS011;34382;43.160;24.148;2023-02-11T08:24:11;12.43;;;6.28;;
48596;SDS011;34382;43.160;24.148;2023-02-11T08:25:43;12.68;;;5.68;;
48596;SDS011;34382;43.160;24.148;2023-02-11T08:27:16;11.85;;;5.65;;
48596;SDS011;34382;43.160;24.148;2023-02-11T08:28:49;12.88;;;5.88;;
48596;SDS011;34382;43.160;24.148;2023-02-11T08:30:22;12.90;;;6.38;;
48596;SDS011;34382;43.160;24.148;2023-02-11T08:31:57;12.60;;;6.07;;
48596;SDS011;34382;43.160;24.148;2023-02-11T08:33:29;12.15;;;5.60;;
48596;SDS011;34382;43.160;24.148;2023-02-11T08:35:01;14.25;;;7.07;;
48596;SDS011;34382;43.160;24.148;2023-02-11T08:36:35;17.00;;;6.25;;
48596;SDS011;34382;43.160;24.148;2023-02-11T08:38:08;14.85;;;6.20;;
48596;SDS011;34382;43.160;24.148;2023-02-11T08:39:40;12.35;;;5.75;;
48596;SDS011;34382;43.160;24.148;2023-02-11T08:41:12;12.88;;;6.15;;
48596;SDS011;34382;43.160;24.148;2023-02-11T08:42:45;19.00;;;7.63;;
48596;SDS011;34382;43.160;24.148;2023-02-11T08:44:18;16.85;;;7.10;;
48596;SDS011;34382;43.160;24.148;2023-02-11T08:45:51;14.20;;;7.30;;
48596;SDS011;34382;43.160;24.148;2023-02-11T08:47:24;15.82;;;6.93;;
48596;SDS011;34382;43.160;24.148;2023-02-11T08:48:56;13.23;;;6.22;;
48596;SDS011;34382;43.160;24.148;2023-02-11T08:50:28;14.20;;;5.78;;
48596;SDS011;34382;43.160;24.148;2023-02-11T08:52:00;12.93;;;6.07;;
48596;SDS011;34382;43.160;24.148;2023-02-11T08:53:35;12.93;;;6.18;;
48596;SDS011;34382;43.160;24.148;2023-02-11T08:55:07;14.17;;;6.70;;
48596;SDS011;34382;43.160;24.148;2023-02-11T08:56:39;13.07;;;6.65;;
48596;SDS011;34382;43.160;24.148;2023-02-11T08:58:11;16.65;;;6.65;;
48596;SDS011;34382;43.160;24.148;2023-02-11T08:59:43;13.27;;;6.75;;
48596;SDS011;34382;43.160;24.148;2023-02-11T09:01:20;12.98;;;6.40;;
48596;SDS011;34382;43.160;24.148;2023-02-11T09:02:56;16.33;;;7.03;;
48596;SDS011;34382;43.160;24.148;2023-02-11T09:04:28;15.65;;;7.45;;
48596;SDS011;34382;43.160;24.148;2023-02-11T09:06:03;14.43;;;6.63;;
48596;SDS011;34382;43.160;24.148;2023-02-11T09:07:36;15.63;;;7.10;;
48596;SDS011;34382;43.160;24.148;2023-02-11T09:09:12;13.75;;;7.38;;
48596;SDS011;34382;43.160;24.148;2023-02-11T09:10:45;13.93;;;6.72;;
48596;SDS011;34382;43.160;24.148;2023-02-11T09:12:17;21.52;;;9.77;;
48596;SDS011;34382;43.160;24.148;2023-02-11T09:13:49;22.05;;;9.85;;
48596;SDS011;34382;43.160;24.148;2023-02-11T09:15:24;14.55;;;7.45;;
48596;SDS011;34382;43.160;24.148;2023-02-11T09:16:57;17.65;;;7.88;;
48596;SDS011;34382;43.160;24.148;2023-02-11T09:18:29;17.55;;;8.48;;
48596;SDS011;34382;43.160;24.148;2023-02-11T09:20:02;26.90;;;9.43;;
48596;SDS011;34382;43.160;24.148;2023-02-11T09:21:34;16.98;;;8.40;;
48596;SDS011;34382;43.160;24.148;2023-02-11T09:23:06;18.88;;;8.73;;
48596;SDS011;34382;43.160;24.148;2023-02-11T09:24:40;17.67;;;8.65;;
48596;SDS011;34382;43.160;24.148;2023-02-11T09:26:22;16.27;;;7.53;;
48596;SDS011;34382;43.160;24.148;2023-02-11T09:27:58;12.73;;;6.93;;
48596;SDS011;34382;43.160;24.148;2023-02-11T09:29:30;15.73;;;7.53;;
48596;SDS011;34382;43.160;24.148;2023-02-11T09:31:06;13.57;;;6.95;;
48596;SDS011;34382;43.160;24.148;2023-02-11T09:32:40;15.05;;;7.30;;
48596;SDS011;34382;43.160;24.148;2023-02-11T09:34:13;20.15;;;8.25;;
48596;SDS011;34382;43.160;24.148;2023-02-11T09:35:46;17.17;;;7.88;;
48596;SDS011;34382;43.160;24.148;2023-02-11T09:37:19;13.88;;;6.88;;
48596;SDS011;34382;43.160;24.148;2023-02-11T09:38:52;14.65;;;7.43;;
48596;SDS011;34382;43.160;24.148;2023-02-11T09:40:25;12.35;;;6.53;;
48596;SDS011;34382;43.160;24.148;2023-02-11T09:43:47;15.40;;;6.75;;
48596;SDS011;34382;43.160;24.148;2023-02-11T09:46:55;12.40;;;6.78;;
48596;SDS011;34382;43.160;24.148;2023-02-11T09:48:31;12.02;;;5.65;;
48596;SDS011;34382;43.160;24.148;2023-02-11T09:50:10;13.10;;;5.70;;
48596;SDS011;34382;43.160;24.148;2023-02-11T09:51:46;13.75;;;5.95;;
48596;SDS011;34382;43.160;24.148;2023-02-11T09:53:24;13.88;;;6.43;;
48596;SDS011;34382;43.160;24.148;2023-02-11T09:54:59;12.57;;;6.25;;